Terminal Aerodrome Forecast
Issued by NWS

Home | Current Version | Previous Version | Text Only | Print | Product List | Glossary On
Versions: 1 2 3 4 5 6 7 8 9 10 11 12 13 14 15
000
FTUS43 KDVN 221700
TAFBRL
TAF
KBRL 221720Z 2218/2318 35011G16KT P6SM SKC
     FM222300 35008KT P6SM SCT250
     FM230700 06004KT P6SM BKN250
     FM231500 14013KT P6SM BKN120=

USA.gov is the U.S. government's official web portal to all federal, state and local government web resources and services.